TOON weather

Toonumbar Dam Helipad
New South Wales, Australia

Public forecast

Using degrees Celsius for public forecast. Weather courtesy of forecast.io.

METAR (pilot weather report)

Closest report is Casino Airport, 21.4 nm (39.7 km) SE. Retrieved 2019/04/20 11:00 UTC (50 minutes ago):

YCAS 201100Z AUTO 21004KT //// // ////// 19/18 Q1024

TAF (pilot weather forecast)

Closest forecast is Gold Coast Airport, 46.4 nm (86.0 km) NE. Retrieved 2019/04/20 06:00 UTC (6 hours ago):

TAF YBCG 200504Z 2006/2106 13014KT 9999 -SHRA FEW015 SCT025 BKN040 FM201200 15008KT 9999 -SHRA SCT015 SCT030 FM202300 12014KT 9999 -SHRA SCT020 SCT030 INTER 2006/2018 3000 SHRA BKN012